Time;durP1;ratioP1;P1;durP2;ratioP2;P2;SDS_P1;SDS_P2;PMS_P1;PMS_P2;Temp;Humidity;BMP_temperature;BMP_pressure;BME280_temperature;BME280_humidity;BME280_pressure;Samples;Min_cycle;Max_cycle;Signal;HPM_P1;HPM_P2
2022/01/21 00:00:12;;;;;;;0.65;0.20;;;;;;;13.98;68.55;102316.69;4954968;28;20072;-80
2022/01/21 00:02:40;;;;;;;1.23;0.20;;;;;;;13.96;68.81;102319.22;4954594;28;20095;-80
2022/01/21 00:05:10;;;;;;;0.10;0.10;;;;;;;13.96;67.47;102321.81;4954947;28;20070;-79
2022/01/21 00:07:38;;;;;;;0.15;0.08;;;;;;;13.94;66.39;102320.88;4968379;28;20106;-78
2022/01/21 00:10:08;;;;;;;0.10;0.10;;;;;;;13.90;66.28;102329.38;4954679;28;20055;-79
2022/01/21 00:12:37;;;;;;;0.30;0.15;;;;;;;13.88;66.05;102332.72;4954420;28;20115;-80
2022/01/21 00:15:10;;;;;;;1.00;0.50;;;;;;;13.89;66.20;102338.00;4973501;28;20074;-80
2022/01/21 00:17:39;;;;;;;2.08;0.77;;;;;;;13.89;65.67;102335.41;4973735;28;20134;-81
2022/01/21 00:31:13;;;;;;;1.10;0.50;;;;;;;13.75;64.96;102329.63;4962667;28;20069;-83
2022/01/21 00:33:41;;;;;;;0.40;0.20;;;;;;;13.67;64.60;102330.13;4961239;28;20043;-78
2022/01/21 00:36:10;;;;;;;0.75;0.20;;;;;;;13.59;65.01;102332.44;4954600;28;20102;-82
2022/01/21 00:38:41;;;;;;;0.68;0.20;;;;;;;13.50;64.67;102348.53;4954776;28;20114;-78
2022/01/21 00:41:10;;;;;;;0.73;0.20;;;;;;;13.42;65.44;102355.09;4967895;28;20062;-78
2022/01/21 00:43:44;;;;;;;0.20;0.10;;;;;;;13.35;66.30;102358.25;4953748;28;20043;-78
2022/01/21 00:46:15;;;;;;;0.38;0.13;;;;;;;13.29;66.10;102366.69;4953769;28;20058;-80
2022/01/21 00:48:43;;;;;;;0.30;0.20;;;;;;;13.21;66.29;102373.19;4956385;28;20058;-79
2022/01/21 00:51:12;;;;;;;0.63;0.20;;;;;;;13.08;66.98;102389.97;4954507;28;20071;-80
2022/01/21 00:53:40;;;;;;;1.00;0.40;;;;;;;12.96;68.31;102386.78;4961486;28;20454;-80
2022/01/21 00:56:09;;;;;;;1.95;0.50;;;;;;;12.83;66.90;102393.16;4969465;28;20058;-81
2022/01/21 00:58:37;;;;;;;0.85;0.28;;;;;;;12.69;65.59;102389.91;4958660;28;20078;-79
2022/01/21 01:01:06;;;;;;;1.83;0.52;;;;;;;12.55;64.50;102391.88;4967798;28;20441;-80
2022/01/21 01:03:36;;;;;;;0.60;0.40;;;;;;;12.45;64.29;102404.31;4952878;28;20058;-78
2022/01/21 01:06:04;;;;;;;0.40;0.20;;;;;;;12.32;62.07;102405.41;4966978;28;20047;-82
2022/01/21 01:08:33;;;;;;;0.10;0.10;;;;;;;12.20;62.98;102408.31;4968937;28;20118;-79
2022/01/21 01:22:00;;;;;;;2.22;1.10;;;;;;;11.77;65.87;102410.44;4953462;28;20456;-82
2022/01/21 01:30:12;;;;;;;1.13;0.47;;;;;;;11.61;67.49;102422.59;4952860;28;20138;-82
2022/01/21 01:32:42;;;;;;;1.50;0.80;;;;;;;11.60;67.48;102432.91;4963776;28;20047;-77
2022/01/21 01:35:14;;;;;;;1.67;0.80;;;;;;;11.55;67.43;102442.16;4954700;28;20051;-77
2022/01/21 01:38:06;;;;;;;3.00;0.50;;;;;;;11.50;66.80;102454.88;4952454;28;20433;-79
2022/01/21 01:40:40;;;;;;;0.77;0.57;;;;;;;11.45;67.10;102449.44;4953061;28;20051;-80
2022/01/21 01:51:14;;;;;;;2.15;0.77;;;;;;;11.16;68.59;102465.13;4955199;28;20058;-82
2022/01/21 01:53:59;;;;;;;0.80;0.60;;;;;;;11.09;68.75;102464.78;4956704;28;20051;-81
2022/01/21 01:56:29;;;;;;;1.08;0.60;;;;;;;11.02;68.64;102473.03;4966488;28;20059;-81
2022/01/21 01:58:58;;;;;;;1.15;0.47;;;;;;;10.96;69.92;102493.41;4959012;28;20110;-80
2022/01/21 02:01:26;;;;;;;0.77;0.45;;;;;;;10.92;69.64;102496.63;4952365;28;20105;-80
2022/01/21 02:03:55;;;;;;;1.20;0.70;;;;;;;10.88;70.30;102505.00;4952325;28;20631;-82
2022/01/21 02:06:25;;;;;;;1.40;0.85;;;;;;;10.81;71.34;102510.66;4952627;28;20110;-82
2022/01/21 02:08:54;;;;;;;1.83;1.20;;;;;;;10.76;71.28;102531.13;4971224;28;20469;-81
2022/01/21 02:11:23;;;;;;;2.03;1.20;;;;;;;10.71;70.96;102523.91;4973362;28;20051;-83
2022/01/21 02:13:59;;;;;;;3.42;1.15;;;;;;;10.64;71.38;102504.53;4952719;28;20056;-83
2022/01/21 02:16:42;;;;;;;0.85;0.60;;;;;;;10.59;71.40;102493.91;4955526;28;20062;-83
2022/01/21 02:21:57;;;;;;;9.13;3.75;;;;;;;10.40;70.53;102481.63;4953259;28;20421;-79
2022/01/21 02:24:34;;;;;;;1.90;1.25;;;;;;;10.34;71.05;102477.78;4961753;28;20111;-78
2022/01/21 02:27:03;;;;;;;1.73;0.70;;;;;;;10.23;72.48;102470.25;4955086;28;20054;-80
2022/01/21 02:29:43;;;;;;;2.35;1.10;;;;;;;10.04;75.28;102477.75;4953000;28;20119;-80
2022/01/21 02:32:12;;;;;;;1.70;0.85;;;;;;;9.84;78.29;102502.41;4952863;28;20047;-82
2022/01/21 02:34:40;;;;;;;5.20;1.88;;;;;;;9.75;80.01;102515.66;4953235;28;20107;-84
2022/01/21 02:37:11;;;;;;;1.98;1.00;;;;;;;9.73;83.28;102522.41;4953097;28;20047;-83
2022/01/21 02:39:39;;;;;;;1.95;0.90;;;;;;;9.73;82.52;102537.03;4953763;28;20051;-84
2022/01/21 02:42:10;;;;;;;1.70;0.57;;;;;;;9.72;81.32;102540.44;4969208;28;20523;-85
2022/01/21 02:44:39;;;;;;;1.25;0.85;;;;;;;9.71;81.59;102544.72;4954932;28;20090;-80
2022/01/21 02:47:08;;;;;;;2.35;0.77;;;;;;;9.70;81.78;102550.69;4951948;28;20090;-80
2022/01/21 02:49:37;;;;;;;1.38;0.60;;;;;;;9.70;81.42;102565.31;4952128;28;20065;-81
2022/01/21 02:52:07;;;;;;;1.05;0.75;;;;;;;9.67;82.16;102573.75;4943926;28;20051;-80
2022/01/21 02:54:38;;;;;;;1.00;0.57;;;;;;;9.60;81.47;102571.59;4958740;28;20496;-79
2022/01/21 02:57:09;;;;;;;0.80;0.52;;;;;;;9.54;83.68;102586.72;4954870;28;20150;-80
2022/01/21 02:59:38;;;;;;;1.90;0.57;;;;;;;9.49;84.94;102589.00;4954131;28;20059;-80
2022/01/21 03:02:07;;;;;;;2.22;0.80;;;;;;;9.44;84.60;102601.63;4944786;28;20630;-81
2022/01/21 03:04:43;;;;;;;1.08;0.60;;;;;;;9.43;88.13;102605.00;4952497;28;20098;-82
2022/01/21 03:07:12;;;;;;;0.77;0.60;;;;;;;9.47;89.54;102620.72;4956287;28;20489;-80
2022/01/21 03:09:42;;;;;;;1.65;0.82;;;;;;;9.50;88.22;102626.06;4971374;28;20113;-79
2022/01/21 03:12:11;;;;;;;1.55;0.70;;;;;;;9.50;88.73;102628.66;4953345;28;20062;-82
2022/01/21 03:14:39;;;;;;;3.70;0.75;;;;;;;9.50;89.95;102626.94;4955737;28;20047;-81
2022/01/21 03:17:08;;;;;;;1.55;0.73;;;;;;;9.53;90.11;102619.41;4962331;28;20081;-83
2022/01/21 03:19:36;;;;;;;2.85;0.70;;;;;;;9.56;89.73;102618.72;4962037;28;20059;-82
2022/01/21 03:22:05;;;;;;;0.88;0.60;;;;;;;9.58;90.55;102624.88;4954580;28;20059;-85
2022/01/21 03:24:34;;;;;;;2.63;1.20;;;;;;;9.58;90.40;102617.13;4954471;28;20197;-83
2022/01/21 03:27:04;;;;;;;1.95;1.02;;;;;;;9.58;90.83;102596.44;4955398;28;20047;-83
2022/01/21 03:29:33;;;;;;;3.35;0.93;;;;;;;9.58;90.17;102594.75;4955225;28;20508;-81
2022/01/21 03:32:02;;;;;;;3.22;1.38;;;;;;;9.56;90.52;102590.28;4969552;28;20055;-83
2022/01/21 03:34:30;;;;;;;5.80;3.90;;;;;;;9.55;89.92;102588.47;4956385;28;20429;-84
2022/01/21 03:36:59;;;;;;;6.80;4.63;;;;;;;9.52;88.86;102594.34;4974690;28;20121;-83
2022/01/21 03:39:27;;;;;;;5.63;3.25;;;;;;;9.51;88.17;102605.50;4977694;28;20055;-83
2022/01/21 03:41:56;;;;;;;6.03;2.83;;;;;;;9.49;87.61;102598.44;4964559;28;20509;-82
2022/01/21 03:44:26;;;;;;;6.57;1.80;;;;;;;9.43;87.08;102598.94;4955143;28;20047;-82
2022/01/21 03:46:54;;;;;;;4.93;1.58;;;;;;;9.34;86.48;102586.31;4954842;28;20525;-84
2022/01/21 03:49:22;;;;;;;2.55;1.42;;;;;;;9.31;86.04;102580.09;4955017;28;20047;-84
2022/01/21 03:51:51;;;;;;;3.10;1.35;;;;;;;9.29;86.18;102586.84;4973153;28;20070;-84
2022/01/21 03:54:27;;;;;;;2.00;1.00;;;;;;;9.28;87.34;102597.94;4967180;28;20082;-84
2022/01/21 03:56:55;;;;;;;2.53;1.30;;;;;;;9.27;89.86;102591.91;4974090;28;20051;-83
2022/01/21 03:59:25;;;;;;;2.80;1.20;;;;;;;9.26;88.87;102584.97;4963486;28;20051;-83
2022/01/21 04:01:54;;;;;;;2.38;1.42;;;;;;;9.23;88.67;102589.91;4956584;28;20130;-82
2022/01/21 04:04:22;;;;;;;2.65;0.90;;;;;;;9.20;88.71;102589.72;4955281;28;20505;-83
2022/01/21 04:06:51;;;;;;;1.20;0.90;;;;;;;9.17;88.31;102585.25;4956731;28;20489;-82
2022/01/21 04:09:19;;;;;;;3.70;1.25;;;;;;;9.11;88.86;102586.53;4967272;28;20055;-83
2022/01/21 04:11:48;;;;;;;3.47;1.63;;;;;;;9.06;89.23;102586.25;4954775;28;20059;-83
2022/01/21 04:14:16;;;;;;;2.53;1.17;;;;;;;9.02;90.18;102585.16;4954296;28;20051;-84
2022/01/21 04:16:47;;;;;;;2.70;1.30;;;;;;;8.98;90.09;102575.44;4958391;28;20488;-83
2022/01/21 04:19:15;;;;;;;3.03;1.50;;;;;;;8.86;92.59;102574.59;4963843;28;20484;-83
2022/01/21 04:21:44;;;;;;;2.72;1.40;;;;;;;8.69;93.85;102582.94;4954771;28;20494;-84
2022/01/21 04:24:12;;;;;;;8.35;1.23;;;;;;;8.56;100.00;102579.53;4953492;28;20077;-82
2022/01/21 04:26:41;;;;;;;2.60;1.23;;;;;;;8.44;100.00;102581.31;4953980;28;20067;-80
2022/01/21 04:29:09;;;;;;;2.40;1.05;;;;;;;8.26;100.00;102580.03;4954792;28;20818;-80
2022/01/21 04:31:38;;;;;;;1.90;1.10;;;;;;;8.15;100.00;102582.78;4953817;28;20509;-81
2022/01/21 04:34:08;;;;;;;1.48;0.90;;;;;;;8.11;100.00;102582.47;4954002;28;20055;-81
2022/01/21 04:36:37;;;;;;;3.67;1.40;;;;;;;8.05;100.00;102577.75;4954843;28;20126;-83
2022/01/21 04:39:08;;;;;;;1.17;0.73;;;;;;;8.04;100.00;102577.66;4956130;28;20050;-81
2022/01/21 04:47:12;;;;;;;1.20;0.90;;;;;;;8.05;100.00;102580.34;4965331;28;20051;-84
2022/01/21 04:47:19;;;;;;;1.83;1.17;;;;;;;8.03;100.00;102584.50;4953828;28;20062;-84
2022/01/21 04:49:50;;;;;;;4.78;1.13;;;;;;;7.95;100.00;102590.81;4953749;28;20061;-81
2022/01/21 04:52:19;;;;;;;4.32;2.47;;;;;;;7.89;100.00;102599.00;4953383;28;20632;-84
2022/01/21 04:54:48;;;;;;;61.53;28.83;;;;;;;7.88;100.00;102598.88;4962753;28;20776;-83
2022/01/21 04:57:16;;;;;;;27.05;15.35;;;;;;;7.87;100.00;102594.53;4964046;28;20090;-83
2022/01/21 04:59:46;;;;;;;8.18;3.78;;;;;;;7.84;100.00;102584.03;4954753;28;20091;-87
2022/01/21 05:02:15;;;;;;;3.22;1.88;;;;;;;7.83;100.00;102584.78;4953601;28;20545;-86
2022/01/21 05:04:43;;;;;;;34.92;19.23;;;;;;;7.79;100.00;102578.53;4953497;28;20059;-83
2022/01/21 05:07:18;;;;;;;2.58;1.33;;;;;;;7.78;100.00;102578.44;4957934;28;20563;-81
2022/01/21 05:09:47;;;;;;;1.98;1.05;;;;;;;7.73;100.00;102591.00;4971444;28;20661;-85
2022/01/21 05:12:19;;;;;;;3.53;1.40;;;;;;;7.67;100.00;102601.78;4953272;28;20130;-83
2022/01/21 05:15:03;;;;;;;2.05;1.25;;;;;;;7.67;100.00;102604.34;4953319;28;20481;-82
2022/01/21 05:17:40;;;;;;;2.03;1.10;;;;;;;7.59;100.00;102605.47;4963037;28;20066;-83
2022/01/21 05:20:09;;;;;;;2.42;1.10;;;;;;;7.53;100.00;102623.06;4958082;28;20710;-83
2022/01/21 05:22:39;;;;;;;3.70;1.30;;;;;;;7.42;100.00;102621.38;4952823;28;20078;-81
2022/01/21 05:25:09;;;;;;;2.28;1.30;;;;;;;7.38;100.00;102621.97;4954250;28;20059;-85
2022/01/21 05:27:37;;;;;;;6.18;2.10;;;;;;;7.39;100.00;102624.63;4953351;28;20083;-83
2022/01/21 05:30:07;;;;;;;5.07;2.35;;;;;;;7.40;100.00;102640.97;4964360;28;20137;-83
2022/01/21 05:32:35;;;;;;;9.10;2.88;;;;;;;7.40;100.00;102639.31;4956565;28;20083;-86
2022/01/21 05:35:05;;;;;;;4.82;2.10;;;;;;;7.40;100.00;102643.56;4955246;28;20556;-85
2022/01/21 05:37:33;;;;;;;5.47;2.15;;;;;;;7.40;100.00;102651.28;4974419;28;20073;-85
2022/01/21 05:40:04;;;;;;;7.88;2.97;;;;;;;7.41;100.00;102653.09;4958283;28;20043;-84
2022/01/21 05:42:34;;;;;;;10.55;4.38;;;;;;;7.40;100.00;102653.84;4957904;28;20047;-87
2022/01/21 05:47:48;;;;;;;11.07;3.75;;;;;;;7.33;100.00;102676.63;4956154;28;20062;-84
2022/01/21 05:50:16;;;;;;;6.93;2.80;;;;;;;7.34;100.00;102673.25;4954010;28;20481;-86
2022/01/21 05:52:47;;;;;;;4.90;2.83;;;;;;;7.36;100.00;102668.22;4965932;28;20492;-85
2022/01/21 05:55:17;;;;;;;5.50;2.00;;;;;;;7.30;100.00;102660.91;4970278;28;20134;-84
2022/01/21 05:57:46;;;;;;;9.63;3.15;;;;;;;7.30;100.00;102663.50;4974770;28;20130;-86
2022/01/21 06:00:15;;;;;;;5.22;2.67;;;;;;;7.30;100.00;102671.22;4981348;28;20126;-83
2022/01/21 06:02:44;;;;;;;6.78;2.58;;;;;;;7.30;100.00;102676.38;4952985;28;20189;-83
2022/01/21 06:05:14;;;;;;;5.65;2.42;;;;;;;7.26;100.00;102683.75;4953035;28;20075;-83
2022/01/21 06:07:43;;;;;;;3.33;1.17;;;;;;;7.16;100.00;102682.19;4961592;28;20071;-81
2022/01/21 06:10:12;;;;;;;3.78;1.30;;;;;;;7.03;100.00;102689.75;4969181;28;20058;-79
2022/01/21 06:12:42;;;;;;;3.00;1.40;;;;;;;6.90;100.00;102694.00;4951894;28;20073;-83
2022/01/21 06:15:11;;;;;;;2.17;1.13;;;;;;;6.83;100.00;102701.16;4953002;28;20115;-83
2022/01/21 06:17:44;;;;;;;3.53;1.40;;;;;;;6.72;100.00;102708.94;4963568;28;20042;-83
2022/01/21 06:20:13;;;;;;;3.45;1.17;;;;;;;6.74;100.00;102706.50;4954181;28;20047;-86
2022/01/21 06:22:42;;;;;;;4.57;1.77;;;;;;;6.76;100.00;102707.50;4951911;28;20084;-85
2022/01/21 06:25:11;;;;;;;2.70;1.10;;;;;;;6.80;100.00;102716.34;4952784;28;20082;-81
2022/01/21 06:27:41;;;;;;;2.78;1.20;;;;;;;6.83;100.00;102719.16;4951929;28;20047;-86
2022/01/21 06:30:10;;;;;;;2.30;1.17;;;;;;;6.83;100.00;102717.50;4953219;28;20083;-83
2022/01/21 06:32:38;;;;;;;2.35;1.30;;;;;;;6.84;100.00;102719.25;4954607;28;20043;-86
2022/01/21 06:35:08;;;;;;;1.67;1.20;;;;;;;6.84;100.00;102724.41;4965409;28;20046;-83
2022/01/21 06:37:40;;;;;;;3.17;1.25;;;;;;;6.82;100.00;102731.13;4957862;28;20043;-81
2022/01/21 06:40:10;;;;;;;2.90;0.97;;;;;;;6.79;100.00;102728.31;4970613;28;20057;-85
2022/01/21 06:42:39;;;;;;;4.18;1.10;;;;;;;6.76;100.00;102728.09;4956490;28;20064;-84
2022/01/21 06:45:10;;;;;;;2.55;1.10;;;;;;;6.75;100.00;102739.16;4955972;28;20115;-85
2022/01/21 06:47:39;;;;;;;2.78;1.23;;;;;;;6.72;100.00;102728.63;4956996;28;20129;-85
2022/01/21 06:50:08;;;;;;;2.42;1.25;;;;;;;6.69;100.00;102730.97;4960782;28;20099;-84
2022/01/21 06:52:37;;;;;;;2.03;1.20;;;;;;;6.67;100.00;102729.97;4974291;28;20081;-89
2022/01/21 06:55:07;;;;;;;1.33;0.70;;;;;;;6.64;100.00;102727.13;4973109;28;20153;-85
2022/01/21 06:57:39;;;;;;;2.50;1.05;;;;;;;6.63;100.00;102736.53;4962309;28;20038;-81
2022/01/21 07:00:13;;;;;;;2.20;1.20;;;;;;;6.63;100.00;102748.50;4956318;28;20047;-85
2022/01/21 07:02:41;;;;;;;3.28;1.23;;;;;;;6.61;100.00;102750.94;4978172;28;20062;-86
2022/01/21 07:05:10;;;;;;;5.78;1.38;;;;;;;6.60;100.00;102764.59;4975153;28;20094;-85
2022/01/21 07:07:39;;;;;;;4.05;1.33;;;;;;;6.59;100.00;102764.47;4966354;28;20050;-85
2022/01/21 07:10:11;;;;;;;1.90;1.00;;;;;;;6.59;100.00;102772.19;4957390;28;20465;-83
2022/01/21 07:12:40;;;;;;;3.58;1.35;;;;;;;6.56;100.00;102778.00;4955003;28;20062;-82
2022/01/21 07:15:11;;;;;;;4.85;1.40;;;;;;;6.52;100.00;102783.66;4956297;28;20108;-84
2022/01/21 07:17:40;;;;;;;3.50;1.08;;;;;;;6.54;100.00;102787.25;4967857;28;20119;-84
2022/01/21 07:20:09;;;;;;;7.43;2.38;;;;;;;6.57;100.00;102786.59;4959954;28;20107;-87
2022/01/21 07:22:38;;;;;;;5.65;2.30;;;;;;;6.60;100.00;102795.47;4959126;28;20094;-84
2022/01/21 07:25:07;;;;;;;6.88;2.05;;;;;;;6.63;100.00;102802.53;4968094;28;20449;-86
2022/01/21 07:27:36;;;;;;;5.85;2.22;;;;;;;6.65;100.00;102804.44;4956189;28;20071;-83
2022/01/21 07:30:06;;;;;;;4.00;1.98;;;;;;;6.68;100.00;102801.19;4967145;28;20081;-83
2022/01/21 07:32:36;;;;;;;5.57;2.30;;;;;;;6.66;100.00;102797.59;4961726;28;20051;-83
2022/01/21 07:35:07;;;;;;;7.05;2.15;;;;;;;6.65;100.00;102795.81;4965889;28;20051;-83
2022/01/21 07:37:35;;;;;;;3.67;1.77;;;;;;;6.66;100.00;102801.06;4975720;28;20097;-83
2022/01/21 07:40:04;;;;;;;3.50;1.40;;;;;;;6.65;100.00;102804.44;4977130;28;20114;-83
2022/01/21 07:42:33;;;;;;;5.10;1.75;;;;;;;6.64;100.00;102806.88;4974859;28;20054;-85
2022/01/21 07:45:01;;;;;;;5.30;2.20;;;;;;;6.66;100.00;102805.31;4974949;28;20074;-84
2022/01/21 07:47:30;;;;;;;6.95;3.38;;;;;;;6.71;100.00;102806.56;4961764;28;20113;-84
2022/01/21 07:50:00;;;;;;;9.48;4.22;;;;;;;6.76;100.00;102813.00;4973964;28;20051;-84
2022/01/21 07:52:28;;;;;;;8.20;3.25;;;;;;;6.71;100.00;102793.72;4974153;28;20606;-84
2022/01/21 07:54:57;;;;;;;9.45;3.67;;;;;;;6.84;100.00;102805.88;4976938;28;20062;-84
2022/01/21 07:57:25;;;;;;;8.38;4.13;;;;;;;6.87;100.00;102822.44;4965625;28;20516;-84
2022/01/21 07:59:54;;;;;;;9.20;3.58;;;;;;;6.88;100.00;102819.09;4954061;28;20078;-85
2022/01/21 08:02:24;;;;;;;10.52;4.15;;;;;;;6.91;100.00;102818.41;4955168;28;20106;-85
2022/01/21 08:04:54;;;;;;;10.18;4.15;;;;;;;6.92;100.00;102826.28;4972859;28;20043;-85
2022/01/21 08:07:24;;;;;;;9.85;3.85;;;;;;;6.95;100.00;102840.16;4968864;28;20129;-85
2022/01/21 08:09:53;;;;;;;8.45;3.40;;;;;;;6.92;100.00;102828.84;4970894;28;20090;-84
2022/01/21 08:12:22;;;;;;;8.80;3.50;;;;;;;6.86;100.00;102825.78;4963608;28;20047;-85
2022/01/21 08:14:50;;;;;;;7.63;3.50;;;;;;;6.88;100.00;102829.38;4958345;28;20134;-85
2022/01/21 08:17:19;;;;;;;7.93;3.78;;;;;;;6.85;100.00;102824.00;4962799;28;20043;-84
2022/01/21 08:19:47;;;;;;;7.13;2.75;;;;;;;6.78;100.00;102826.88;4973532;28;20460;-85
2022/01/21 08:22:16;;;;;;;7.18;2.90;;;;;;;6.74;100.00;102824.84;4973981;28;20051;-84
2022/01/21 08:24:46;;;;;;;4.30;2.58;;;;;;;6.72;100.00;102829.84;4960721;28;20047;-84
2022/01/21 08:27:14;;;;;;;6.45;2.45;;;;;;;6.72;100.00;102837.56;4954873;28;20497;-84
2022/01/21 08:29:43;;;;;;;6.07;2.45;;;;;;;6.74;100.00;102837.72;4967393;28;20082;-83
2022/01/21 08:32:12;;;;;;;4.45;2.05;;;;;;;6.75;100.00;102836.03;4976217;28;20484;-84
2022/01/21 08:34:41;;;;;;;3.30;1.55;;;;;;;6.70;100.00;102843.38;4964344;28;20055;-83
2022/01/21 08:37:09;;;;;;;4.13;1.83;;;;;;;6.71;100.00;102851.22;4967934;28;20082;-84
2022/01/21 08:39:38;;;;;;;4.03;1.80;;;;;;;6.75;100.00;102847.22;4962525;28;20085;-83
2022/01/21 08:42:09;;;;;;;4.25;1.88;;;;;;;6.81;100.00;102850.28;4973175;28;20055;-83
2022/01/21 08:44:38;;;;;;;4.25;1.48;;;;;;;6.87;100.00;102861.06;4959478;28;20085;-84
2022/01/21 08:47:07;;;;;;;4.10;2.00;;;;;;;6.88;100.00;102854.22;4954155;28;20051;-83
2022/01/21 08:49:36;;;;;;;6.60;2.08;;;;;;;6.90;100.00;102843.28;4968901;28;20058;-84
2022/01/21 08:52:05;;;;;;;3.50;1.60;;;;;;;6.91;100.00;102850.19;4961414;28;20050;-82
2022/01/21 08:54:33;;;;;;;3.55;1.55;;;;;;;6.83;100.00;102853.88;4975557;28;20149;-82
2022/01/21 08:57:02;;;;;;;4.25;1.92;;;;;;;6.88;100.00;102865.41;4972786;28;20054;-82
2022/01/21 08:59:32;;;;;;;3.50;1.92;;;;;;;6.91;100.00;102868.22;4958059;28;20106;-83
2022/01/21 09:02:00;;;;;;;5.63;1.92;;;;;;;6.92;100.00;102864.88;4963336;28;20082;-83
2022/01/21 09:04:29;;;;;;;2.45;1.15;;;;;;;6.92;100.00;102867.44;4969151;28;20518;-82
2022/01/21 09:06:58;;;;;;;3.95;1.85;;;;;;;6.80;100.00;102851.03;4967703;28;20055;-85
2022/01/21 09:09:28;;;;;;;3.85;1.67;;;;;;;6.89;100.00;102867.22;4972441;28;20090;-82
2022/01/21 09:12:00;;;;;;;4.32;2.25;;;;;;;6.89;100.00;102864.66;4972060;28;20042;-82
2022/01/21 09:14:28;;;;;;;2.83;1.87;;;;;;;6.90;100.00;102862.97;4972670;28;20481;-84
2022/01/21 09:16:59;;;;;;;3.72;1.98;;;;;;;6.89;100.00;102858.56;4972598;28;20179;-82
2022/01/21 09:19:28;;;;;;;3.22;1.67;;;;;;;6.85;100.00;102853.97;4960778;28;20130;-82
2022/01/21 09:21:56;;;;;;;4.45;1.73;;;;;;;6.87;100.00;102852.41;4956926;28;20053;-84
2022/01/21 09:24:25;;;;;;;4.28;2.13;;;;;;;6.83;100.00;102842.69;4962251;28;20047;-84
2022/01/21 09:26:53;;;;;;;5.97;2.25;;;;;;;6.80;100.00;102858.75;4969797;28;20487;-84
2022/01/21 09:29:21;;;;;;;4.30;1.88;;;;;;;6.78;100.00;102860.34;4968928;28;20105;-84
2022/01/21 09:31:50;;;;;;;3.63;1.95;;;;;;;6.76;100.00;102858.38;4955629;28;20051;-84
2022/01/21 09:34:20;;;;;;;5.53;1.83;;;;;;;6.73;100.00;102859.03;4965913;28;20494;-84
2022/01/21 09:36:49;;;;;;;4.57;1.80;;;;;;;6.72;100.00;102857.28;4966425;28;20046;-83
2022/01/21 09:39:17;;;;;;;5.00;2.05;;;;;;;6.69;100.00;102851.91;4968598;28;20051;-83
2022/01/21 09:41:48;;;;;;;3.28;1.70;;;;;;;6.66;100.00;102861.91;4964802;28;20083;-83
2022/01/21 09:44:19;;;;;;;4.68;2.08;;;;;;;6.61;100.00;102863.25;4971449;28;20059;-83
2022/01/21 09:46:50;;;;;;;5.13;1.88;;;;;;;6.58;100.00;102865.56;4961970;28;20047;-83
2022/01/21 09:49:29;;;;;;;3.47;1.58;;;;;;;6.55;100.00;102861.09;4953460;28;20623;-83
2022/01/21 09:52:00;;;;;;;3.05;1.42;;;;;;;6.53;100.00;102859.16;4953207;28;20138;-83
2022/01/21 09:54:38;;;;;;;2.90;1.23;;;;;;;6.53;100.00;102854.00;4968211;28;20119;-83
2022/01/21 09:57:08;;;;;;;4.65;1.50;;;;;;;6.49;100.00;102856.34;4944352;28;20125;-83
2022/01/21 09:59:38;;;;;;;3.60;1.85;;;;;;;6.44;100.00;102852.50;4952739;28;20233;-83
2022/01/21 10:02:09;;;;;;;2.95;1.65;;;;;;;6.40;100.00;102862.44;4952042;28;20488;-83
2022/01/21 10:04:42;;;;;;;3.97;1.40;;;;;;;6.26;100.00;102864.78;4949474;28;20054;-82
2022/01/21 10:07:15;;;;;;;3.13;1.67;;;;;;;6.12;100.00;102859.31;4940377;29;20054;-84
2022/01/21 10:09:44;;;;;;;5.70;1.60;;;;;;;5.88;100.00;102851.34;4950126;28;20059;-83
2022/01/21 10:12:14;;;;;;;4.97;1.45;;;;;;;5.84;100.00;102862.13;4952304;28;20051;-83
2022/01/21 10:14:43;;;;;;;3.65;1.48;;;;;;;5.83;100.00;102868.94;4945914;28;20053;-81
2022/01/21 10:17:13;;;;;;;3.47;1.17;;;;;;;5.83;100.00;102888.63;4952204;28;20055;-80
2022/01/21 10:19:45;;;;;;;2.05;0.90;;;;;;;5.83;100.00;102893.75;4942575;28;20149;-81
2022/01/21 10:22:17;;;;;;;2.03;0.88;;;;;;;5.83;100.00;102898.88;4971945;28;20615;-82
2022/01/21 10:24:54;;;;;;;2.22;1.23;;;;;;;5.83;100.00;102911.72;4951622;28;20126;-82
2022/01/21 10:27:26;;;;;;;1.65;0.90;;;;;;;5.82;100.00;102915.09;4956828;28;20091;-82
2022/01/21 10:29:54;;;;;;;1.15;0.77;;;;;;;5.83;100.00;102922.00;4959119;28;20065;-82
2022/01/21 10:32:35;;;;;;;4.82;0.90;;;;;;;5.85;100.00;102938.47;4943860;28;20114;-84
2022/01/21 10:35:05;;;;;;;1.45;1.05;;;;;;;5.86;100.00;102937.66;4937619;28;20063;-83
2022/01/21 10:37:36;;;;;;;1.85;1.25;;;;;;;5.84;100.00;102929.84;4937543;28;20067;-83
2022/01/21 10:40:07;;;;;;;2.00;0.80;;;;;;;5.82;100.00;102930.50;4954801;28;20481;-83
2022/01/21 10:42:36;;;;;;;2.05;0.95;;;;;;;5.82;100.00;102935.66;4956139;28;20047;-83
2022/01/21 10:45:06;;;;;;;1.67;0.80;;;;;;;5.80;100.00;102932.03;4953767;28;20071;-83
2022/01/21 10:47:37;;;;;;;3.60;1.40;;;;;;;5.75;100.00;102936.78;4953946;28;20121;-84
2022/01/21 10:50:11;;;;;;;1.95;1.00;;;;;;;5.72;100.00;102945.91;4959010;28;20051;-85
2022/01/21 10:52:41;;;;;;;1.02;0.70;;;;;;;5.70;100.00;102945.75;4961658;28;20051;-83
2022/01/21 10:55:28;;;;;;;2.00;0.75;;;;;;;5.66;100.00;102954.00;4974463;28;20455;-82
2022/01/21 10:58:08;;;;;;;2.25;0.90;;;;;;;5.63;100.00;102958.84;4975582;28;20511;-83
2022/01/21 11:00:37;;;;;;;3.20;1.00;;;;;;;5.60;100.00;102974.91;4975247;28;20138;-82
2022/01/21 11:03:13;;;;;;;2.50;0.60;;;;;;;5.57;100.00;102987.50;4974705;28;20510;-82
2022/01/21 11:05:47;;;;;;;2.28;1.13;;;;;;;5.55;100.00;102989.03;4956952;28;20051;-82
2022/01/21 11:08:16;;;;;;;1.45;0.98;;;;;;;5.50;100.00;102982.63;4968897;28;20078;-81
2022/01/21 11:10:50;;;;;;;1.45;1.00;;;;;;;5.46;100.00;102985.69;4960811;28;20108;-82
2022/01/21 11:13:29;;;;;;;3.30;1.13;;;;;;;5.41;100.00;102992.09;4963949;28;20497;-81
2022/01/21 11:16:00;;;;;;;2.08;1.08;;;;;;;5.30;100.00;102997.97;4973471;28;20097;-81
2022/01/21 11:18:30;;;;;;;1.00;0.60;;;;;;;5.21;100.00;103014.34;4965516;28;20055;-82
2022/01/21 11:21:06;;;;;;;1.80;1.00;;;;;;;5.15;100.00;103013.81;4971550;28;20053;-82
2022/01/21 11:23:36;;;;;;;3.03;1.20;;;;;;;5.12;100.00;103028.06;4964755;28;20070;-82
2022/01/21 11:26:09;;;;;;;3.75;1.17;;;;;;;5.08;100.00;103021.75;4955776;28;20542;-83
2022/01/21 11:28:45;;;;;;;2.28;1.30;;;;;;;5.13;100.00;103024.72;4967868;28;20046;-82
2022/01/21 11:31:15;;;;;;;5.35;1.23;;;;;;;5.12;100.00;103016.13;4972706;28;20051;-82
2022/01/21 11:33:43;;;;;;;2.05;1.10;;;;;;;5.12;100.00;103013.56;4966078;28;20047;-82
2022/01/21 11:36:13;;;;;;;4.43;1.20;;;;;;;5.12;100.00;103012.66;4970970;28;20055;-82
2022/01/21 11:38:44;;;;;;;3.40;1.73;;;;;;;5.10;100.00;103009.94;4964756;28;20058;-82
2022/01/21 11:41:14;;;;;;;2.17;1.20;;;;;;;5.07;100.00;103009.69;4975049;28;20059;-82
2022/01/21 11:43:49;;;;;;;2.35;1.40;;;;;;;5.02;100.00;103006.72;4955299;28;20565;-82
2022/01/21 11:46:37;;;;;;;3.05;1.30;;;;;;;4.99;100.00;103015.78;4969236;28;20059;-82
2022/01/21 11:49:09;;;;;;;8.38;1.67;;;;;;;4.97;100.00;103007.06;4955406;28;20058;-82
2022/01/21 11:51:40;;;;;;;7.20;1.58;;;;;;;4.93;100.00;103013.59;4971063;28;20066;-82
2022/01/21 11:54:10;;;;;;;2.50;1.25;;;;;;;4.91;100.00;103014.25;4974833;28;20051;-82
2022/01/21 11:56:44;;;;;;;1.83;1.13;;;;;;;4.82;100.00;103015.22;4946300;28;20138;-82
2022/01/21 11:59:16;;;;;;;2.65;1.30;;;;;;;4.84;100.00;103025.63;4955385;28;20050;-82
2022/01/21 12:01:48;;;;;;;2.47;0.90;;;;;;;4.81;100.00;103023.69;4938858;28;20054;-82
2022/01/21 12:04:37;;;;;;;2.03;1.13;;;;;;;4.77;100.00;103024.16;4935203;28;20059;-82
2022/01/21 12:07:58;;;;;;;2.05;1.35;;;;;;;4.75;100.00;103029.94;4939233;28;20043;-84
2022/01/21 12:10:42;;;;;;;2.67;1.10;;;;;;;4.72;100.00;103020.28;4954326;28;20055;-83
2022/01/21 12:13:17;;;;;;;2.20;0.95;;;;;;;4.72;100.00;103020.28;4940735;28;20051;-83
2022/01/21 12:21:51;;;;;;;1.27;0.50;;;;;;;4.71;100.00;102985.13;4941769;28;20087;-83
2022/01/21 12:24:54;;;;;;;1.65;0.75;;;;;;;4.73;100.00;102985.28;4965850;28;20511;-82
2022/01/21 12:27:25;;;;;;;3.22;0.88;;;;;;;4.73;100.00;102980.16;4932634;28;20048;-82
2022/01/21 12:30:26;;;;;;;1.95;0.80;;;;;;;4.73;100.00;102975.03;4939915;28;20126;-82
2022/01/21 12:32:56;;;;;;;1.40;0.60;;;;;;;4.68;100.00;102966.94;4950007;28;20068;-84